sensor_id;sensor_type;location;lat;lon;timestamp;pressure;altitude;pressure_sealevel;temperature;humidity
61761;BME280;47664;51.660;-0.100;2023-03-26T00:01:18;99702.08;;;10.46;55.91
61761;BME280;47664;51.660;-0.100;2023-03-26T00:03:46;99696.55;;;10.61;55.84
61761;BME280;47664;51.660;-0.100;2023-03-26T00:06:15;99691.68;;;10.48;55.86
61761;BME280;47664;51.660;-0.100;2023-03-26T00:08:44;99687.56;;;11.03;55.43
61761;BME280;47664;51.660;-0.100;2023-03-26T00:11:13;99688.19;;;10.14;55.33
61761;BME280;47664;51.660;-0.100;2023-03-26T00:13:41;99686.96;;;10.21;56.10
61761;BME280;47664;51.660;-0.100;2023-03-26T00:16:08;99687.49;;;10.02;56.24
61761;BME280;47664;51.660;-0.100;2023-03-26T00:18:35;99681.28;;;10.33;56.45
61761;BME280;47664;51.660;-0.100;2023-03-26T00:21:05;99673.55;;;10.00;56.41
61761;BME280;47664;51.660;-0.100;2023-03-26T00:23:34;99669.79;;;10.36;56.22
61761;BME280;47664;51.660;-0.100;2023-03-26T00:26:02;99664.34;;;10.02;55.45
61761;BME280;47664;51.660;-0.100;2023-03-26T00:28:30;99656.25;;;10.91;55.17
61761;BME280;47664;51.660;-0.100;2023-03-26T00:30:59;99660.01;;;9.77;56.27
61761;BME280;47664;51.660;-0.100;2023-03-26T00:33:27;99657.75;;;10.41;56.46
61761;BME280;47664;51.660;-0.100;2023-03-26T00:35:56;99651.94;;;10.10;56.61
61761;BME280;47664;51.660;-0.100;2023-03-26T00:38:24;99646.45;;;10.36;56.67
61761;BME280;47664;51.660;-0.100;2023-03-26T00:40:53;99632.70;;;10.09;56.39
61761;BME280;47664;51.660;-0.100;2023-03-26T00:43:21;99629.33;;;10.35;56.83
61761;BME280;47664;51.660;-0.100;2023-03-26T00:45:51;99628.81;;;10.46;57.71
61761;BME280;47664;51.660;-0.100;2023-03-26T00:48:20;99625.43;;;9.88;58.39
61761;BME280;47664;51.660;-0.100;2023-03-26T00:50:49;99626.08;;;9.70;58.85
61761;BME280;47664;51.660;-0.100;2023-03-26T00:53:16;99618.25;;;9.58;58.70
61761;BME280;47664;51.660;-0.100;2023-03-26T00:55:45;99613.40;;;9.98;58.26
61761;BME280;47664;51.660;-0.100;2023-03-26T00:58:14;99614.15;;;9.93;58.31
61761;BME280;47664;51.660;-0.100;2023-03-26T01:00:45;99607.26;;;9.89;58.02
61761;BME280;47664;51.660;-0.100;2023-03-26T01:03:14;99604.45;;;9.88;58.02
61761;BME280;47664;51.660;-0.100;2023-03-26T01:05:46;99605.22;;;10.13;58.32
61761;BME280;47664;51.660;-0.100;2023-03-26T01:08:21;99604.46;;;9.42;60.20
61761;BME280;47664;51.660;-0.100;2023-03-26T01:10:50;99599.33;;;9.37;59.88
61761;BME280;47664;51.660;-0.100;2023-03-26T01:13:18;99593.23;;;9.60;59.29
61761;BME280;47664;51.660;-0.100;2023-03-26T01:15:47;99585.05;;;9.70;59.22
61761;BME280;47664;51.660;-0.100;2023-03-26T01:18:18;99582.59;;;9.43;60.21
61761;BME280;47664;51.660;-0.100;2023-03-26T01:20:48;99579.10;;;9.37;61.52
61761;BME280;47664;51.660;-0.100;2023-03-26T01:23:20;99574.14;;;8.56;62.25
61761;BME280;47664;51.660;-0.100;2023-03-26T01:25:56;99571.85;;;9.02;62.51
61761;BME280;47664;51.660;-0.100;2023-03-26T01:28:30;99560.52;;;9.20;62.33
61761;BME280;47664;51.660;-0.100;2023-03-26T01:31:04;99557.45;;;8.58;63.69
61761;BME280;47664;51.660;-0.100;2023-03-26T01:33:38;99552.95;;;8.83;63.67
61761;BME280;47664;51.660;-0.100;2023-03-26T01:36:17;99551.63;;;8.64;63.53
61761;BME280;47664;51.660;-0.100;2023-03-26T01:38:52;99546.00;;;8.93;63.55
61761;BME280;47664;51.660;-0.100;2023-03-26T01:41:28;99539.87;;;8.41;63.43
61761;BME280;47664;51.660;-0.100;2023-03-26T01:44:02;99536.77;;;8.10;63.38
61761;BME280;47664;51.660;-0.100;2023-03-26T01:46:33;99531.67;;;8.68;63.57
61761;BME280;47664;51.660;-0.100;2023-03-26T01:49:01;99528.94;;;8.90;63.19
61761;BME280;47664;51.660;-0.100;2023-03-26T01:51:32;99524.53;;;8.85;63.31
61761;BME280;47664;51.660;-0.100;2023-03-26T01:54:00;99521.62;;;8.68;63.72
61761;BME280;47664;51.660;-0.100;2023-03-26T01:56:36;99514.78;;;8.17;64.73
61761;BME280;47664;51.660;-0.100;2023-03-26T01:59:17;99512.58;;;8.31;64.68
61761;BME280;47664;51.660;-0.100;2023-03-26T02:01:52;99512.06;;;8.60;64.11
61761;BME280;47664;51.660;-0.100;2023-03-26T02:04:25;99507.87;;;8.60;63.71
61761;BME280;47664;51.660;-0.100;2023-03-26T02:06:57;99501.71;;;8.79;63.99
61761;BME280;47664;51.660;-0.100;2023-03-26T02:09:29;99496.24;;;8.50;64.94
61761;BME280;47664;51.660;-0.100;2023-03-26T02:11:58;99495.02;;;7.43;65.77
61761;BME280;47664;51.660;-0.100;2023-03-26T02:14:28;99492.96;;;8.25;65.80
61761;BME280;47664;51.660;-0.100;2023-03-26T02:16:55;99488.03;;;7.96;65.37
61761;BME280;47664;51.660;-0.100;2023-03-26T02:19:23;99482.86;;;8.59;65.35
61761;BME280;47664;51.660;-0.100;2023-03-26T02:21:51;99479.55;;;8.12;65.52
61761;BME280;47664;51.660;-0.100;2023-03-26T02:24:19;99477.24;;;8.35;65.67
61761;BME280;47664;51.660;-0.100;2023-03-26T02:26:46;99471.88;;;8.63;64.93
61761;BME280;47664;51.660;-0.100;2023-03-26T02:29:14;99468.66;;;8.51;64.69
61761;BME280;47664;51.660;-0.100;2023-03-26T02:31:41;99464.40;;;8.71;64.69
61761;BME280;47664;51.660;-0.100;2023-03-26T02:34:08;99456.52;;;8.56;65.48
61761;BME280;47664;51.660;-0.100;2023-03-26T02:36:36;99451.54;;;8.12;66.61
61761;BME280;47664;51.660;-0.100;2023-03-26T02:39:03;99453.08;;;8.40;65.91
61761;BME280;47664;51.660;-0.100;2023-03-26T02:41:30;99449.70;;;8.40;64.98
61761;BME280;47664;51.660;-0.100;2023-03-26T02:43:58;99443.81;;;7.90;64.56
61761;BME280;47664;51.660;-0.100;2023-03-26T02:46:25;99440.30;;;8.95;63.74
61761;BME280;47664;51.660;-0.100;2023-03-26T02:48:51;99432.07;;;9.31;63.21
61761;BME280;47664;51.660;-0.100;2023-03-26T02:51:18;99426.88;;;8.90;63.15
61761;BME280;47664;51.660;-0.100;2023-03-26T02:53:45;99425.85;;;8.90;63.94
61761;BME280;47664;51.660;-0.100;2023-03-26T02:56:13;99424.32;;;8.85;64.02
61761;BME280;47664;51.660;-0.100;2023-03-26T02:58:41;99417.61;;;8.70;65.30
61761;BME280;47664;51.660;-0.100;2023-03-26T03:01:07;99418.01;;;8.39;65.73
61761;BME280;47664;51.660;-0.100;2023-03-26T03:03:34;99419.28;;;8.65;64.97
61761;BME280;47664;51.660;-0.100;2023-03-26T03:06:02;99417.04;;;8.27;64.12
61761;BME280;47664;51.660;-0.100;2023-03-26T03:08:29;99415.23;;;8.62;64.65
61761;BME280;47664;51.660;-0.100;2023-03-26T03:10:58;99413.21;;;7.89;66.34
61761;BME280;47664;51.660;-0.100;2023-03-26T03:13:26;99411.03;;;8.66;66.33
61761;BME280;47664;51.660;-0.100;2023-03-26T03:15:54;99405.10;;;8.16;66.15
61761;BME280;47664;51.660;-0.100;2023-03-26T03:18:22;99402.82;;;8.79;65.49
61761;BME280;47664;51.660;-0.100;2023-03-26T03:20:49;99402.82;;;8.55;65.41
61761;BME280;47664;51.660;-0.100;2023-03-26T03:23:17;99394.81;;;8.89;65.13
61761;BME280;47664;51.660;-0.100;2023-03-26T03:25:44;99393.20;;;9.31;64.67
61761;BME280;47664;51.660;-0.100;2023-03-26T03:28:11;99392.65;;;9.07;64.20
61761;BME280;47664;51.660;-0.100;2023-03-26T03:30:39;99391.69;;;8.99;64.27
61761;BME280;47664;51.660;-0.100;2023-03-26T03:33:06;99393.11;;;8.51;65.28
61761;BME280;47664;51.660;-0.100;2023-03-26T03:35:33;99386.96;;;8.93;65.23
61761;BME280;47664;51.660;-0.100;2023-03-26T03:38:00;99383.52;;;8.42;65.05
61761;BME280;47664;51.660;-0.100;2023-03-26T03:40:27;99381.67;;;9.07;63.94
61761;BME280;47664;51.660;-0.100;2023-03-26T03:42:55;99383.62;;;8.40;63.42
61761;BME280;47664;51.660;-0.100;2023-03-26T03:45:21;99382.01;;;9.36;62.87
61761;BME280;47664;51.660;-0.100;2023-03-26T03:47:49;99380.76;;;9.55;62.14
61761;BME280;47664;51.660;-0.100;2023-03-26T03:50:16;99378.49;;;9.45;61.96
61761;BME280;47664;51.660;-0.100;2023-03-26T03:52:43;99375.91;;;9.43;61.94
61761;BME280;47664;51.660;-0.100;2023-03-26T03:55:10;99370.85;;;9.65;61.71
61761;BME280;47664;51.660;-0.100;2023-03-26T03:57:37;99372.45;;;10.02;60.85
61761;BME280;47664;51.660;-0.100;2023-03-26T04:00:06;99370.85;;;9.97;60.29
61761;BME280;47664;51.660;-0.100;2023-03-26T04:02:34;99368.05;;;10.08;60.74
61761;BME280;47664;51.660;-0.100;2023-03-26T04:05:01;99367.86;;;9.13;60.96
61761;BME280;47664;51.660;-0.100;2023-03-26T04:07:29;99367.99;;;9.47;61.36
61761;BME280;47664;51.660;-0.100;2023-03-26T04:09:57;99367.13;;;8.98;61.57
61761;BME280;47664;51.660;-0.100;2023-03-26T04:12:25;99365.68;;;9.55;61.50
61761;BME280;47664;51.660;-0.100;2023-03-26T04:14:53;99362.88;;;9.17;61.52
61761;BME280;47664;51.660;-0.100;2023-03-26T04:17:20;99364.71;;;9.84;60.93
61761;BME280;47664;51.660;-0.100;2023-03-26T04:19:49;99360.24;;;9.98;60.29
61761;BME280;47664;51.660;-0.100;2023-03-26T04:22:16;99358.08;;;9.79;59.99
61761;BME280;47664;51.660;-0.100;2023-03-26T04:24:43;99356.44;;;9.71;60.35
61761;BME280;47664;51.660;-0.100;2023-03-26T04:27:13;99357.60;;;9.52;60.23
61761;BME280;47664;51.660;-0.100;2023-03-26T04:29:42;99355.16;;;9.90;60.29
61761;BME280;47664;51.660;-0.100;2023-03-26T04:32:15;99355.04;;;9.92;60.00
61761;BME280;47664;51.660;-0.100;2023-03-26T04:34:45;99350.82;;;9.96;60.31
61761;BME280;47664;51.660;-0.100;2023-03-26T04:37:19;99348.63;;;9.45;59.87
61761;BME280;47664;51.660;-0.100;2023-03-26T04:39:49;99348.52;;;9.86;59.43
61761;BME280;47664;51.660;-0.100;2023-03-26T04:42:16;99347.51;;;9.87;60.16
61761;BME280;47664;51.660;-0.100;2023-03-26T04:44:44;99340.32;;;9.66;61.29
61761;BME280;47664;51.660;-0.100;2023-03-26T04:47:12;99341.02;;;9.38;61.26
61761;BME280;47664;51.660;-0.100;2023-03-26T04:49:39;99341.30;;;9.83;61.07
61761;BME280;47664;51.660;-0.100;2023-03-26T04:52:06;99339.38;;;9.44;61.05
61761;BME280;47664;51.660;-0.100;2023-03-26T04:54:33;99337.74;;;10.03;61.12
61761;BME280;47664;51.660;-0.100;2023-03-26T04:57:02;99337.58;;;8.95;60.96
61761;BME280;47664;51.660;-0.100;2023-03-26T04:59:33;99338.76;;;9.86;60.58
61761;BME280;47664;51.660;-0.100;2023-03-26T05:02:00;99336.75;;;9.01;60.13
61761;BME280;47664;51.660;-0.100;2023-03-26T05:04:28;99334.52;;;9.95;60.26
61761;BME280;47664;51.660;-0.100;2023-03-26T05:06:57;99335.79;;;9.45;60.46
61761;BME280;47664;51.660;-0.100;2023-03-26T05:09:24;99338.05;;;9.98;60.17
61761;BME280;47664;51.660;-0.100;2023-03-26T05:11:52;99339.60;;;9.77;60.27
61761;BME280;47664;51.660;-0.100;2023-03-26T05:14:19;99340.06;;;10.07;59.70
61761;BME280;47664;51.660;-0.100;2023-03-26T05:16:48;99341.86;;;9.89;60.32
61761;BME280;47664;51.660;-0.100;2023-03-26T05:19:15;99341.89;;;10.21;59.98
61761;BME280;47664;51.660;-0.100;2023-03-26T05:21:42;99345.01;;;10.25;59.70
61761;BME280;47664;51.660;-0.100;2023-03-26T05:24:10;99346.13;;;10.31;59.34
61761;BME280;47664;51.660;-0.100;2023-03-26T05:26:37;99352.40;;;10.45;59.41
61761;BME280;47664;51.660;-0.100;2023-03-26T05:29:04;99353.14;;;9.77;59.51
61761;BME280;47664;51.660;-0.100;2023-03-26T05:31:31;99355.41;;;10.09;59.72
61761;BME280;47664;51.660;-0.100;2023-03-26T05:33:59;99352.32;;;9.30;60.58
61761;BME280;47664;51.660;-0.100;2023-03-26T05:36:26;99346.62;;;9.36;61.45
61761;BME280;47664;51.660;-0.100;2023-03-26T05:38:53;99353.35;;;9.28;61.91
61761;BME280;47664;51.660;-0.100;2023-03-26T05:41:20;99360.62;;;9.02;63.18
61761;BME280;47664;51.660;-0.100;2023-03-26T05:43:48;99362.22;;;8.73;64.24
61761;BME280;47664;51.660;-0.100;2023-03-26T05:46:16;99363.42;;;9.01;64.16
61761;BME280;47664;51.660;-0.100;2023-03-26T05:48:44;99371.59;;;8.15;66.24
61761;BME280;47664;51.660;-0.100;2023-03-26T05:51:11;99367.35;;;7.93;66.18
61761;BME280;47664;51.660;-0.100;2023-03-26T05:53:37;99365.57;;;8.28;66.01
61761;BME280;47664;51.660;-0.100;2023-03-26T05:56:05;99366.84;;;8.20;64.66
61761;BME280;47664;51.660;-0.100;2023-03-26T05:58:33;99368.84;;;8.67;64.61
61761;BME280;47664;51.660;-0.100;2023-03-26T06:01:03;99370.77;;;7.94;63.47
61761;BME280;47664;51.660;-0.100;2023-03-26T06:03:31;99371.99;;;8.21;64.89
61761;BME280;47664;51.660;-0.100;2023-03-26T06:05:59;99371.10;;;7.08;64.78
61761;BME280;47664;51.660;-0.100;2023-03-26T06:08:26;99369.39;;;7.37;65.80
61761;BME280;47664;51.660;-0.100;2023-03-26T06:10:57;99369.73;;;7.19;66.12
61761;BME280;47664;51.660;-0.100;2023-03-26T06:13:25;99371.05;;;7.38;66.26
61761;BME280;47664;51.660;-0.100;2023-03-26T06:15:53;99370.48;;;7.19;65.81
61761;BME280;47664;51.660;-0.100;2023-03-26T06:18:20;99373.48;;;7.19;66.00
61761;BME280;47664;51.660;-0.100;2023-03-26T06:20:47;99368.77;;;7.50;66.19
61761;BME280;47664;51.660;-0.100;2023-03-26T06:23:15;99371.60;;;7.58;66.33
61761;BME280;47664;51.660;-0.100;2023-03-26T06:25:42;99374.22;;;7.29;66.25
61761;BME280;47664;51.660;-0.100;2023-03-26T06:28:10;99374.62;;;6.83;66.59
61761;BME280;47664;51.660;-0.100;2023-03-26T06:30:37;99377.08;;;6.58;67.33
61761;BME280;47664;51.660;-0.100;2023-03-26T06:33:04;99379.04;;;6.96;68.28
61761;BME280;47664;51.660;-0.100;2023-03-26T06:35:31;99380.72;;;7.35;67.24
61761;BME280;47664;51.660;-0.100;2023-03-26T06:37:59;99383.30;;;6.47;66.78
61761;BME280;47664;51.660;-0.100;2023-03-26T06:40:26;99387.08;;;6.83;66.69
61761;BME280;47664;51.660;-0.100;2023-03-26T06:42:53;99392.96;;;6.05;68.34
61761;BME280;47664;51.660;-0.100;2023-03-26T06:45:21;99396.58;;;6.18;68.61
61761;BME280;47664;51.660;-0.100;2023-03-26T06:47:49;99400.58;;;6.44;68.98
61761;BME280;47664;51.660;-0.100;2023-03-26T06:50:16;99403.86;;;6.43;68.66
61761;BME280;47664;51.660;-0.100;2023-03-26T06:52:43;99407.09;;;6.59;68.71
61761;BME280;47664;51.660;-0.100;2023-03-26T06:55:10;99415.36;;;6.31;68.86
61761;BME280;47664;51.660;-0.100;2023-03-26T06:57:38;99423.07;;;6.34;69.07
61761;BME280;47664;51.660;-0.100;2023-03-26T07:00:06;99423.71;;;6.36;67.56
61761;BME280;47664;51.660;-0.100;2023-03-26T07:02:35;99427.33;;;7.43;66.53
61761;BME280;47664;51.660;-0.100;2023-03-26T07:05:01;99437.23;;;7.13;65.15
61761;BME280;47664;51.660;-0.100;2023-03-26T07:07:28;99444.86;;;7.59;64.00
61761;BME280;47664;51.660;-0.100;2023-03-26T07:09:56;99448.12;;;7.07;64.36
61761;BME280;47664;51.660;-0.100;2023-03-26T07:12:24;99453.94;;;7.00;64.75
61761;BME280;47664;51.660;-0.100;2023-03-26T07:14:52;99458.21;;;6.34;66.42
61761;BME280;47664;51.660;-0.100;2023-03-26T07:17:19;99463.64;;;7.19;65.41
61761;BME280;47664;51.660;-0.100;2023-03-26T07:19:46;99469.86;;;7.04;65.77
61761;BME280;47664;51.660;-0.100;2023-03-26T07:22:19;99474.20;;;6.71;66.02
61761;BME280;47664;51.660;-0.100;2023-03-26T07:24:49;99478.25;;;7.53;65.43
61761;BME280;47664;51.660;-0.100;2023-03-26T07:27:27;99482.44;;;7.26;64.30
61761;BME280;47664;51.660;-0.100;2023-03-26T07:30:05;99484.77;;;6.66;64.43
61761;BME280;47664;51.660;-0.100;2023-03-26T07:32:39;99485.50;;;7.16;65.10
61761;BME280;47664;51.660;-0.100;2023-03-26T07:35:13;99488.31;;;6.46;65.96
61761;BME280;47664;51.660;-0.100;2023-03-26T07:37:52;99491.68;;;6.83;66.07
61761;BME280;47664;51.660;-0.100;2023-03-26T07:40:38;99495.37;;;6.84;66.76
61761;BME280;47664;51.660;-0.100;2023-03-26T07:43:17;99496.48;;;7.46;67.23
61761;BME280;47664;51.660;-0.100;2023-03-26T07:45:50;99496.42;;;7.24;66.65
61761;BME280;47664;51.660;-0.100;2023-03-26T07:48:22;99496.27;;;7.38;65.44
61761;BME280;47664;51.660;-0.100;2023-03-26T07:50:50;99502.37;;;7.42;65.74
61761;BME280;47664;51.660;-0.100;2023-03-26T07:53:19;99503.44;;;7.80;64.94
61761;BME280;47664;51.660;-0.100;2023-03-26T07:55:51;99508.18;;;7.68;64.13
61761;BME280;47664;51.660;-0.100;2023-03-26T07:58:35;99511.07;;;7.30;65.85
61761;BME280;47664;51.660;-0.100;2023-03-26T08:01:10;99515.82;;;6.98;65.58
61761;BME280;47664;51.660;-0.100;2023-03-26T08:04:03;99519.58;;;7.03;66.92
61761;BME280;47664;51.660;-0.100;2023-03-26T08:06:36;99520.86;;;6.71;67.83
61761;BME280;47664;51.660;-0.100;2023-03-26T08:09:12;99522.68;;;6.31;68.04
61761;BME280;47664;51.660;-0.100;2023-03-26T08:11:49;99523.62;;;6.29;68.40
61761;BME280;47664;51.660;-0.100;2023-03-26T08:14:31;99528.44;;;6.52;69.37
61761;BME280;47664;51.660;-0.100;2023-03-26T08:17:06;99533.53;;;5.88;68.67
61761;BME280;47664;51.660;-0.100;2023-03-26T08:19:44;99536.63;;;6.72;68.58
61761;BME280;47664;51.660;-0.100;2023-03-26T08:22:17;99541.73;;;6.36;68.98
61761;BME280;47664;51.660;-0.100;2023-03-26T08:25:00;99545.23;;;6.66;68.89
61761;BME280;47664;51.660;-0.100;2023-03-26T08:27:36;99548.83;;;6.75;67.81
61761;BME280;47664;51.660;-0.100;2023-03-26T08:30:10;99549.23;;;6.15;68.99
61761;BME280;47664;51.660;-0.100;2023-03-26T08:32:41;99551.62;;;6.26;69.56
61761;BME280;47664;51.660;-0.100;2023-03-26T08:35:10;99559.87;;;6.82;69.95
61761;BME280;47664;51.660;-0.100;2023-03-26T08:37:38;99563.21;;;6.18;69.80
61761;BME280;47664;51.660;-0.100;2023-03-26T08:40:06;99568.07;;;6.26;70.25
61761;BME280;47664;51.660;-0.100;2023-03-26T08:46:07;99576.55;;;6.71;71.15
61761;BME280;47664;51.660;-0.100;2023-03-26T08:48:59;99579.13;;;6.89;69.88
61761;BME280;47664;51.660;-0.100;2023-03-26T08:51:43;99583.68;;;7.28;69.11
61761;BME280;47664;51.660;-0.100;2023-03-26T08:54:58;99584.96;;;8.07;68.04
61761;BME280;47664;51.660;-0.100;2023-03-26T08:57:53;99591.27;;;8.58;65.76
61761;BME280;47664;51.660;-0.100;2023-03-26T09:02:18;99592.20;;;8.49;64.58
61761;BME280;47664;51.660;-0.100;2023-03-26T09:05:13;99599.21;;;8.33;64.18
61761;BME280;47664;51.660;-0.100;2023-03-26T09:10:11;99605.79;;;9.20;63.75
61761;BME280;47664;51.660;-0.100;2023-03-26T09:13:48;99611.77;;;8.41;63.97
61761;BME280;47664;51.660;-0.100;2023-03-26T09:16:32;99612.33;;;8.09;65.73
61761;BME280;47664;51.660;-0.100;2023-03-26T09:19:53;99614.76;;;8.19;65.17
61761;BME280;47664;51.660;-0.100;2023-03-26T09:23:12;99622.23;;;9.21;64.11
61761;BME280;47664;51.660;-0.100;2023-03-26T09:25:55;99630.54;;;9.07;64.33
61761;BME280;47664;51.660;-0.100;2023-03-26T09:28:56;99629.39;;;8.27;65.77
61761;BME280;47664;51.660;-0.100;2023-03-26T09:32:25;99637.10;;;8.16;65.53
61761;BME280;47664;51.660;-0.100;2023-03-26T09:35:20;99640.71;;;8.10;65.36
61761;BME280;47664;51.660;-0.100;2023-03-26T09:37:57;99644.66;;;7.98;64.20
61761;BME280;47664;51.660;-0.100;2023-03-26T09:40:34;99649.08;;;8.80;64.28
61761;BME280;47664;51.660;-0.100;2023-03-26T09:43:24;99654.18;;;8.97;63.95
61761;BME280;47664;51.660;-0.100;2023-03-26T09:46:03;99662.26;;;9.34;63.38
61761;BME280;47664;51.660;-0.100;2023-03-26T09:48:46;99668.37;;;9.40;63.15
61761;BME280;47664;51.660;-0.100;2023-03-26T09:51:30;99671.06;;;9.16;62.96
61761;BME280;47664;51.660;-0.100;2023-03-26T09:54:27;99682.33;;;8.81;64.61
61761;BME280;47664;51.660;-0.100;2023-03-26T09:57:04;99684.15;;;8.02;65.00
61761;BME280;47664;51.660;-0.100;2023-03-26T09:59:52;99684.96;;;9.03;64.52
61761;BME280;47664;51.660;-0.100;2023-03-26T10:02:41;99690.41;;;8.95;64.50
61761;BME280;47664;51.660;-0.100;2023-03-26T10:05:22;99689.20;;;8.79;63.96
61761;BME280;47664;51.660;-0.100;2023-03-26T10:08:05;99698.25;;;9.02;63.07
61761;BME280;47664;51.660;-0.100;2023-03-26T10:10:45;99707.84;;;9.30;62.80
61761;BME280;47664;51.660;-0.100;2023-03-26T10:13:26;99711.66;;;9.05;62.59
61761;BME280;47664;51.660;-0.100;2023-03-26T10:16:10;99721.33;;;8.41;62.55
61761;BME280;47664;51.660;-0.100;2023-03-26T10:18:52;99723.75;;;9.06;62.97
61761;BME280;47664;51.660;-0.100;2023-03-26T10:21:33;99725.98;;;9.32;62.85
61761;BME280;47664;51.660;-0.100;2023-03-26T10:25:01;99733.92;;;8.97;63.08
61761;BME280;47664;51.660;-0.100;2023-03-26T10:27:40;99743.12;;;9.52;62.35
61761;BME280;47664;51.660;-0.100;2023-03-26T10:30:31;99751.57;;;9.43;62.95
61761;BME280;47664;51.660;-0.100;2023-03-26T10:33:15;99757.35;;;8.90;62.20
61761;BME280;47664;51.660;-0.100;2023-03-26T10:35:51;99764.31;;;9.68;62.22
61761;BME280;47664;51.660;-0.100;2023-03-26T10:38:33;99771.07;;;9.39;63.26
61761;BME280;47664;51.660;-0.100;2023-03-26T10:41:09;99778.90;;;9.48;62.93
61761;BME280;47664;51.660;-0.100;2023-03-26T10:44:05;99777.79;;;9.49;62.09
61761;BME280;47664;51.660;-0.100;2023-03-26T10:46:57;99783.68;;;9.47;62.94
61761;BME280;47664;51.660;-0.100;2023-03-26T10:49:40;99787.03;;;9.33;62.64
61761;BME280;47664;51.660;-0.100;2023-03-26T10:52:12;99799.57;;;9.25;61.89
61761;BME280;47664;51.660;-0.100;2023-03-26T10:54:48;99807.74;;;9.37;62.15
61761;BME280;47664;51.660;-0.100;2023-03-26T10:57:32;99815.66;;;9.35;62.13
61761;BME280;47664;51.660;-0.100;2023-03-26T11:00:13;99821.76;;;9.02;61.64
61761;BME280;47664;51.660;-0.100;2023-03-26T11:02:45;99827.34;;;9.25;62.58
61761;BME280;47664;51.660;-0.100;2023-03-26T11:05:31;99835.12;;;9.26;62.32
61761;BME280;47664;51.660;-0.100;2023-03-26T11:08:06;99840.45;;;9.04;63.13
61761;BME280;47664;51.660;-0.100;2023-03-26T11:10:46;99848.49;;;9.76;63.17
61761;BME280;47664;51.660;-0.100;2023-03-26T11:13:22;99855.97;;;9.19;64.40
61761;BME280;47664;51.660;-0.100;2023-03-26T11:15:58;99863.92;;;8.12;65.33
61761;BME280;47664;51.660;-0.100;2023-03-26T11:18:35;99866.80;;;7.97;66.69
61761;BME280;47664;51.660;-0.100;2023-03-26T11:21:10;99873.54;;;7.27;67.01
61761;BME280;47664;51.660;-0.100;2023-03-26T11:23:45;99882.14;;;8.21;67.22
61761;BME280;47664;51.660;-0.100;2023-03-26T11:26:17;99894.62;;;7.76;67.78
61761;BME280;47664;51.660;-0.100;2023-03-26T11:29:05;99901.67;;;7.83;67.91
61761;BME280;47664;51.660;-0.100;2023-03-26T11:31:49;99909.01;;;7.92;67.64
61761;BME280;47664;51.660;-0.100;2023-03-26T11:34:24;99911.05;;;8.17;66.42
61761;BME280;47664;51.660;-0.100;2023-03-26T11:36:55;99921.93;;;7.54;67.74
61761;BME280;47664;51.660;-0.100;2023-03-26T11:39:27;99930.74;;;7.38;67.92
61761;BME280;47664;51.660;-0.100;2023-03-26T11:42:01;99934.85;;;6.98;67.60
61761;BME280;47664;51.660;-0.100;2023-03-26T11:44:35;99935.65;;;7.00;69.50
61761;BME280;47664;51.660;-0.100;2023-03-26T11:47:06;99945.67;;;6.25;68.72
61761;BME280;47664;51.660;-0.100;2023-03-26T11:49:35;99953.21;;;6.90;68.56
61761;BME280;47664;51.660;-0.100;2023-03-26T11:52:03;99962.88;;;7.17;68.64
61761;BME280;47664;51.660;-0.100;2023-03-26T11:54:30;99967.65;;;7.63;67.97
61761;BME280;47664;51.660;-0.100;2023-03-26T11:57:00;99977.07;;;7.07;67.32
61761;BME280;47664;51.660;-0.100;2023-03-26T11:59:33;99983.56;;;7.39;67.63
61761;BME280;47664;51.660;-0.100;2023-03-26T12:02:18;99988.86;;;6.97;67.93
61761;BME280;47664;51.660;-0.100;2023-03-26T12:04:51;99998.74;;;7.60;66.93
61761;BME280;47664;51.660;-0.100;2023-03-26T12:07:20;100007.58;;;7.87;65.99
61761;BME280;47664;51.660;-0.100;2023-03-26T12:09:50;100009.23;;;7.75;65.68
61761;BME280;47664;51.660;-0.100;2023-03-26T12:12:18;100019.72;;;7.83;65.57
61761;BME280;47664;51.660;-0.100;2023-03-26T12:14:46;100018.09;;;8.03;64.89
61761;BME280;47664;51.660;-0.100;2023-03-26T12:17:24;100027.50;;;7.68;66.10
61761;BME280;47664;51.660;-0.100;2023-03-26T12:19:53;100036.74;;;7.57;65.57
61761;BME280;47664;51.660;-0.100;2023-03-26T12:22:28;100036.21;;;7.09;66.48
61761;BME280;47664;51.660;-0.100;2023-03-26T12:25:14;100038.45;;;6.93;66.42
61761;BME280;47664;51.660;-0.100;2023-03-26T12:27:43;100043.27;;;7.51;64.57
61761;BME280;47664;51.660;-0.100;2023-03-26T12:30:20;100054.31;;;7.73;65.16
61761;BME280;47664;51.660;-0.100;2023-03-26T12:32:50;100061.42;;;7.56;63.61
61761;BME280;47664;51.660;-0.100;2023-03-26T12:35:23;100064.91;;;7.48;63.87
61761;BME280;47664;51.660;-0.100;2023-03-26T12:37:51;100072.90;;;7.41;63.71
61761;BME280;47664;51.660;-0.100;2023-03-26T12:40:29;100084.35;;;7.92;63.68
61761;BME280;47664;51.660;-0.100;2023-03-26T12:42:57;100089.49;;;7.46;62.19
61761;BME280;47664;51.660;-0.100;2023-03-26T12:45:29;100099.61;;;8.46;61.24
61761;BME280;47664;51.660;-0.100;2023-03-26T12:47:58;100102.46;;;7.69;61.52
61761;BME280;47664;51.660;-0.100;2023-03-26T12:50:34;100113.32;;;7.64;61.41
61761;BME280;47664;51.660;-0.100;2023-03-26T12:53:20;100117.08;;;7.25;61.81
61761;BME280;47664;51.660;-0.100;2023-03-26T12:55:59;100128.65;;;7.54;61.31
61761;BME280;47664;51.660;-0.100;2023-03-26T12:58:38;100133.32;;;7.61;61.35
61761;BME280;47664;51.660;-0.100;2023-03-26T13:01:16;100137.93;;;7.72;61.57
61761;BME280;47664;51.660;-0.100;2023-03-26T13:04:00;100144.96;;;7.70;60.20
61761;BME280;47664;51.660;-0.100;2023-03-26T13:06:37;100147.79;;;8.24;59.87
61761;BME280;47664;51.660;-0.100;2023-03-26T13:09:17;100152.21;;;7.69;60.52
61761;BME280;47664;51.660;-0.100;2023-03-26T13:11:59;100161.74;;;7.98;60.50
61761;BME280;47664;51.660;-0.100;2023-03-26T13:14:43;100169.91;;;8.01;60.96
61761;BME280;47664;51.660;-0.100;2023-03-26T13:17:20;100170.55;;;7.77;61.81
61761;BME280;47664;51.660;-0.100;2023-03-26T13:19:58;100175.19;;;8.25;61.90
61761;BME280;47664;51.660;-0.100;2023-03-26T13:22:34;100179.78;;;8.14;61.19
61761;BME280;47664;51.660;-0.100;2023-03-26T13:25:18;100182.37;;;7.86;59.87
61761;BME280;47664;51.660;-0.100;2023-03-26T13:27:54;100188.49;;;8.67;59.95
61761;BME280;47664;51.660;-0.100;2023-03-26T13:30:31;100192.40;;;8.84;59.59
61761;BME280;47664;51.660;-0.100;2023-03-26T13:33:11;100193.96;;;7.37;59.37
61761;BME280;47664;51.660;-0.100;2023-03-26T13:35:49;100195.94;;;8.61;58.66
61761;BME280;47664;51.660;-0.100;2023-03-26T13:38:21;100199.74;;;7.87;60.33